createdAt,value
2018-05-13T00:00:45.967Z,23.81
2018-05-13T00:01:48.446Z,23.81
2018-05-13T00:02:50.921Z,23.81
2018-05-13T00:03:53.397Z,23.82
2018-05-13T00:04:55.944Z,23.81
2018-05-13T00:05:58.456Z,23.81
2018-05-13T00:07:00.955Z,23.82
2018-05-13T00:08:03.518Z,23.82
2018-05-13T00:09:06.078Z,23.82
2018-05-13T00:10:08.636Z,23.83
2018-05-13T00:11:11.125Z,23.82
2018-05-13T00:12:13.603Z,23.83
2018-05-13T00:13:16.109Z,23.83
2018-05-13T00:14:18.611Z,23.83
2018-05-13T00:15:21.103Z,23.83
2018-05-13T00:16:23.608Z,23.83
2018-05-13T00:17:26.100Z,23.83
2018-05-13T00:18:28.590Z,23.83
2018-05-13T00:19:31.091Z,23.83
2018-05-13T00:20:33.597Z,23.83
2018-05-13T00:21:36.069Z,23.84
2018-05-13T00:22:38.586Z,23.83
2018-05-13T00:23:41.096Z,23.83
2018-05-13T00:24:43.572Z,23.84
2018-05-13T00:25:46.096Z,23.84
2018-05-13T00:26:48.562Z,23.85
2018-05-13T00:27:51.052Z,23.84
2018-05-13T00:28:53.531Z,23.84
2018-05-13T00:29:55.998Z,23.83
2018-05-13T00:30:58.528Z,23.83
2018-05-13T00:32:01.039Z,23.83
2018-05-13T00:33:03.547Z,23.83
2018-05-13T00:34:06.041Z,23.83
2018-05-13T00:35:08.647Z,23.81
2018-05-13T00:36:11.206Z,23.82
2018-05-13T00:37:13.693Z,23.82
2018-05-13T00:38:16.202Z,23.81
2018-05-13T00:39:18.694Z,23.82
2018-05-13T00:40:21.199Z,23.82
2018-05-13T00:41:23.698Z,23.81
2018-05-13T00:42:26.185Z,23.81
2018-05-13T00:43:28.654Z,23.82
2018-05-13T00:44:31.136Z,23.81
2018-05-13T00:45:33.620Z,23.81
2018-05-13T00:46:36.144Z,23.82
2018-05-13T00:47:38.641Z,23.83
2018-05-13T00:48:41.139Z,23.82
2018-05-13T00:49:43.622Z,23.83
2018-05-13T00:50:46.147Z,23.83
2018-05-13T00:51:48.663Z,23.82
2018-05-13T00:52:51.272Z,23.82
2018-05-13T00:53:53.756Z,23.83
2018-05-13T00:54:56.245Z,23.83
2018-05-13T00:55:58.754Z,23.84
2018-05-13T00:57:01.280Z,23.85
2018-05-13T00:58:03.843Z,23.83
2018-05-13T00:59:06.348Z,23.84
2018-05-13T01:00:08.845Z,23.84
2018-05-13T01:01:11.333Z,23.84
2018-05-13T01:02:13.862Z,23.84
2018-05-13T01:03:16.367Z,23.84
2018-05-13T01:04:18.874Z,23.84
2018-05-13T01:05:21.383Z,23.84
2018-05-13T01:06:23.869Z,23.84
2018-05-13T01:07:26.379Z,23.84
2018-05-13T01:08:28.863Z,23.84
2018-05-13T01:09:31.349Z,23.85
2018-05-13T01:10:33.821Z,23.85
2018-05-13T01:11:36.325Z,23.85
2018-05-13T01:12:38.819Z,23.85
2018-05-13T01:13:41.313Z,23.85
2018-05-13T01:14:43.789Z,23.85
2018-05-13T01:15:46.302Z,23.86
2018-05-13T01:16:48.774Z,23.85
2018-05-13T01:17:51.337Z,23.85
2018-05-13T01:18:53.824Z,23.86
2018-05-13T01:19:56.298Z,23.86
2018-05-13T01:20:58.781Z,23.86
2018-05-13T01:22:01.290Z,23.86
2018-05-13T01:23:03.849Z,23.87
2018-05-13T01:24:06.410Z,23.88
2018-05-13T01:25:08.887Z,23.88
2018-05-13T01:26:11.392Z,23.90
2018-05-13T01:27:13.909Z,23.90
2018-05-13T01:28:16.441Z,23.90
2018-05-13T01:29:18.950Z,23.91
2018-05-13T01:30:21.437Z,23.91
2018-05-13T01:31:23.928Z,23.91
2018-05-13T01:32:26.439Z,23.91
2018-05-13T01:33:28.953Z,23.91
2018-05-13T01:34:31.463Z,23.91
2018-05-13T01:35:33.934Z,23.91
2018-05-13T01:36:36.420Z,23.91
2018-05-13T01:37:38.938Z,23.91
2018-05-13T01:38:41.427Z,23.91
2018-05-13T01:39:43.902Z,23.91
2018-05-13T01:40:46.385Z,23.92
2018-05-13T01:41:48.900Z,23.92
2018-05-13T01:42:51.407Z,23.92
2018-05-13T01:43:53.921Z,23.92
2018-05-13T01:44:56.492Z,23.92
2018-05-13T01:45:59.070Z,23.92
2018-05-13T01:47:01.537Z,23.93
2018-05-13T01:48:04.022Z,23.93
2018-05-13T01:49:06.547Z,23.92
2018-05-13T01:50:09.062Z,23.92
2018-05-13T01:51:11.541Z,23.92
2018-05-13T01:52:14.029Z,23.92
2018-05-13T01:53:16.518Z,23.93
2018-05-13T01:54:19.039Z,23.94
2018-05-13T01:55:21.533Z,23.94
2018-05-13T01:56:24.039Z,23.94
2018-05-13T01:57:26.533Z,23.93
2018-05-13T01:58:29.009Z,23.93
2018-05-13T01:59:31.500Z,23.94
2018-05-13T02:00:33.997Z,23.94
2018-05-13T02:01:36.465Z,23.94
2018-05-13T02:02:38.975Z,23.94
2018-05-13T02:03:41.454Z,23.94
2018-05-13T02:04:43.959Z,23.94
2018-05-13T02:05:46.459Z,23.93
2018-05-13T02:06:49.024Z,23.93
2018-05-13T02:07:51.584Z,23.92
2018-05-13T02:08:54.063Z,23.92
2018-05-13T02:09:56.600Z,23.91
2018-05-13T02:10:59.089Z,23.91
2018-05-13T02:12:01.587Z,23.91
2018-05-13T02:13:04.080Z,23.91
2018-05-13T02:14:06.564Z,23.90
2018-05-13T02:15:09.058Z,23.90
2018-05-13T02:16:11.564Z,23.90
2018-05-13T02:17:14.062Z,23.89
2018-05-13T02:18:16.552Z,23.89
2018-05-13T02:19:19.051Z,23.88
2018-05-13T02:20:21.578Z,23.88
2018-05-13T02:21:24.090Z,23.87
2018-05-13T02:22:26.584Z,23.87
2018-05-13T02:23:29.159Z,23.87
2018-05-13T02:24:31.706Z,23.87
2018-05-13T02:25:34.213Z,23.86
2018-05-13T02:26:36.748Z,23.86
2018-05-13T02:27:39.406Z,23.87
2018-05-13T02:28:41.880Z,23.86
2018-05-13T02:29:44.365Z,23.86
2018-05-13T02:30:46.898Z,23.86
2018-05-13T02:31:49.392Z,23.85
2018-05-13T02:32:51.881Z,23.85
2018-05-13T02:33:54.427Z,23.84
2018-05-13T02:34:56.928Z,23.85
2018-05-13T02:35:59.459Z,23.85
2018-05-13T02:37:01.951Z,23.85
2018-05-13T02:38:04.431Z,23.85
2018-05-13T02:39:06.898Z,23.85
2018-05-13T02:40:09.386Z,23.85
2018-05-13T02:41:11.901Z,23.85
2018-05-13T02:42:14.384Z,23.85
2018-05-13T02:43:16.858Z,23.84
2018-05-13T02:44:19.444Z,23.85
2018-05-13T02:45:21.925Z,23.85
2018-05-13T02:46:24.414Z,23.86
2018-05-13T02:47:26.907Z,23.86
2018-05-13T02:48:29.374Z,23.87
2018-05-13T02:49:31.936Z,23.87
2018-05-13T02:50:34.498Z,23.87
2018-05-13T02:51:37.001Z,23.88
2018-05-13T02:52:39.514Z,23.88
2018-05-13T02:53:42.001Z,23.89
2018-05-13T02:54:44.470Z,23.89
2018-05-13T02:55:46.976Z,23.90
2018-05-13T02:56:49.511Z,23.90
2018-05-13T02:57:51.990Z,23.90
2018-05-13T02:58:54.480Z,23.91
2018-05-13T02:59:56.979Z,23.90
2018-05-13T03:00:59.499Z,23.90
2018-05-13T03:02:01.989Z,23.89
2018-05-13T03:03:04.495Z,23.90
2018-05-13T03:04:06.993Z,23.91
2018-05-13T03:05:09.485Z,23.91
2018-05-13T03:06:11.981Z,23.91
2018-05-13T03:07:14.506Z,23.92
2018-05-13T03:08:16.998Z,23.91
2018-05-13T03:09:19.486Z,23.92
2018-05-13T03:10:22.016Z,23.92
2018-05-13T03:11:24.497Z,23.92
2018-05-13T03:12:27.047Z,23.92
2018-05-13T03:13:29.592Z,23.93
2018-05-13T03:14:32.085Z,23.92
2018-05-13T03:15:34.559Z,23.93
2018-05-13T03:16:37.064Z,23.92
2018-05-13T03:17:39.572Z,23.92
2018-05-13T03:18:42.038Z,23.93
2018-05-13T03:19:44.554Z,23.91
2018-05-13T03:20:47.026Z,23.91
2018-05-13T03:21:49.518Z,23.90
2018-05-13T03:22:52.006Z,23.90
2018-05-13T03:23:54.515Z,23.89
2018-05-13T03:24:57.019Z,23.89
2018-05-13T03:25:59.576Z,23.88
2018-05-13T03:27:02.087Z,23.88
2018-05-13T03:28:04.587Z,23.87
2018-05-13T03:29:07.057Z,23.87
2018-05-13T03:30:09.530Z,23.86
2018-05-13T03:31:12.025Z,23.86
2018-05-13T03:32:14.525Z,23.86
2018-05-13T03:33:17.062Z,23.85
2018-05-13T03:34:19.557Z,23.85
2018-05-13T03:35:22.059Z,23.85
2018-05-13T03:36:24.583Z,23.84
2018-05-13T03:37:27.092Z,23.85
2018-05-13T03:38:29.598Z,23.86
2018-05-13T03:39:32.078Z,23.85
2018-05-13T03:40:34.561Z,23.87
2018-05-13T03:41:37.049Z,23.89
2018-05-13T03:42:39.551Z,23.90
2018-05-13T03:43:42.067Z,23.92
2018-05-13T03:44:44.561Z,23.93
2018-05-13T03:45:47.038Z,23.94
2018-05-13T03:46:49.521Z,23.96
2018-05-13T03:47:52.011Z,23.97
2018-05-13T03:48:54.557Z,23.98
2018-05-13T03:49:57.045Z,23.99
2018-05-13T03:50:59.548Z,23.99
2018-05-13T03:52:02.021Z,24.00
2018-05-13T03:53:04.536Z,24.01
2018-05-13T03:54:07.068Z,24.01
2018-05-13T03:55:09.573Z,24.01
2018-05-13T03:56:12.046Z,24.01
2018-05-13T03:57:14.529Z,23.99
2018-05-13T03:58:17.009Z,23.99
2018-05-13T03:59:19.513Z,23.99
2018-05-13T04:00:22.035Z,23.99
2018-05-13T04:01:24.594Z,23.98
2018-05-13T04:02:27.099Z,23.97
2018-05-13T04:03:29.611Z,23.97
2018-05-13T04:04:32.132Z,23.99
2018-05-13T04:05:34.619Z,23.99
2018-05-13T04:06:37.090Z,24.00
2018-05-13T04:09:44.228Z,23.98
2018-05-13T04:10:58.509Z,23.99
2018-05-13T04:12:12.778Z,23.98
2018-05-13T04:13:27.057Z,23.97
2018-05-13T04:14:41.455Z,23.96
2018-05-13T04:15:43.935Z,23.95
2018-05-13T04:16:46.421Z,23.94
2018-05-13T04:17:48.905Z,23.93
2018-05-13T04:18:51.516Z,23.93
2018-05-13T04:19:54.040Z,23.92
2018-05-13T04:20:56.565Z,23.91
2018-05-13T04:21:59.071Z,23.91
2018-05-13T04:23:01.564Z,23.91
2018-05-13T04:24:04.040Z,23.91
2018-05-13T04:25:06.524Z,23.90
2018-05-13T04:26:09.013Z,23.90
2018-05-13T04:27:11.512Z,23.90
2018-05-13T04:28:14.051Z,23.89
2018-05-13T04:29:17.399Z,23.89
2018-05-13T04:30:19.908Z,23.90
2018-05-13T04:31:22.405Z,23.88
2018-05-13T04:32:24.885Z,23.89
2018-05-13T04:33:27.381Z,23.89
2018-05-13T04:34:29.859Z,23.90
2018-05-13T04:35:32.346Z,23.91
2018-05-13T04:36:34.834Z,23.91
2018-05-13T04:37:37.324Z,23.91
2018-05-13T04:38:39.790Z,23.91
2018-05-13T04:39:42.268Z,23.90
2018-05-13T04:40:44.761Z,23.90
2018-05-13T04:41:47.250Z,23.89
2018-05-13T04:42:49.732Z,23.88
2018-05-13T04:43:52.207Z,23.87
2018-05-13T04:44:54.689Z,23.87
2018-05-13T04:45:57.210Z,23.87
2018-05-13T04:46:59.686Z,23.87
2018-05-13T04:48:02.160Z,23.86
2018-05-13T04:49:04.719Z,23.85
2018-05-13T04:50:07.218Z,23.85
2018-05-13T04:51:09.728Z,23.84
2018-05-13T04:52:12.220Z,23.83
2018-05-13T04:53:14.767Z,23.84
2018-05-13T04:54:17.250Z,23.84
2018-05-13T04:55:19.740Z,23.84
2018-05-13T04:56:22.248Z,23.84
2018-05-13T04:57:24.751Z,23.84
2018-05-13T04:58:27.265Z,23.84
2018-05-13T04:59:29.735Z,23.84
2018-05-13T05:00:32.229Z,23.83
2018-05-13T05:01:34.737Z,23.83
2018-05-13T05:02:37.211Z,23.83
2018-05-13T05:03:39.725Z,23.83
2018-05-13T05:04:42.227Z,23.83
2018-05-13T05:05:44.745Z,23.82
2018-05-13T05:06:47.256Z,23.83
2018-05-13T05:07:49.727Z,23.84
2018-05-13T05:08:52.225Z,23.83
2018-05-13T05:09:54.701Z,23.83
2018-05-13T05:10:57.197Z,23.83
2018-05-13T05:11:59.715Z,23.82
2018-05-13T05:13:02.219Z,23.82
2018-05-13T05:14:04.728Z,23.82
2018-05-13T05:15:07.231Z,23.82
2018-05-13T05:16:09.739Z,23.82
2018-05-13T05:17:12.260Z,23.83
2018-05-13T05:18:14.765Z,23.83
2018-05-13T05:19:17.247Z,23.84
2018-05-13T05:20:19.751Z,23.83
2018-05-13T05:21:22.256Z,23.83
2018-05-13T05:22:24.761Z,23.83
2018-05-13T05:23:27.268Z,23.84
2018-05-13T05:24:29.738Z,23.86
2018-05-13T05:25:32.226Z,23.88
2018-05-13T05:26:34.725Z,23.88
2018-05-13T05:27:37.306Z,23.89
2018-05-13T05:28:39.793Z,23.89
2018-05-13T05:29:42.293Z,23.88
2018-05-13T05:30:44.793Z,23.86
2018-05-13T05:31:47.303Z,23.84
2018-05-13T05:32:49.806Z,23.82
2018-05-13T05:33:52.287Z,23.81
2018-05-13T05:34:54.851Z,23.78
2018-05-13T05:35:57.304Z,23.77
2018-05-13T05:36:59.783Z,23.75
2018-05-13T05:38:02.289Z,23.74
2018-05-13T05:39:04.770Z,23.72
2018-05-13T05:40:07.265Z,23.71
2018-05-13T05:41:09.775Z,23.71
2018-05-13T05:42:12.269Z,23.68
2018-05-13T05:43:14.785Z,23.63
2018-05-13T05:44:17.295Z,23.59
2018-05-13T05:45:19.796Z,23.54
2018-05-13T05:46:22.270Z,23.49
2018-05-13T05:47:24.738Z,23.45
2018-05-13T05:48:27.242Z,23.40
2018-05-13T05:49:29.755Z,23.38
2018-05-13T05:50:32.240Z,23.35
2018-05-13T05:51:34.763Z,23.34
2018-05-13T05:52:37.256Z,23.29
2018-05-13T05:53:39.762Z,23.26
2018-05-13T05:54:42.271Z,23.23
2018-05-13T05:55:44.798Z,23.21
2018-05-13T05:56:47.274Z,23.19
2018-05-13T05:57:49.761Z,23.22
2018-05-13T05:58:52.269Z,23.18
2018-05-13T05:59:54.755Z,23.15
2018-05-13T06:00:57.254Z,23.12
2018-05-13T06:01:59.744Z,23.10
2018-05-13T06:03:02.235Z,23.10
2018-05-13T06:04:04.739Z,23.09
2018-05-13T06:05:07.441Z,23.09
2018-05-13T06:06:09.941Z,23.08
2018-05-13T06:07:12.413Z,23.08
2018-05-13T06:08:14.916Z,23.09
2018-05-13T06:09:17.391Z,23.08
2018-05-13T06:10:19.891Z,23.08
2018-05-13T06:11:22.364Z,23.09
2018-05-13T06:12:24.842Z,23.08
2018-05-13T06:13:27.341Z,23.09
2018-05-13T06:14:29.855Z,23.08
2018-05-13T06:15:32.416Z,23.09
2018-05-13T06:16:34.917Z,23.08
2018-05-13T06:17:37.427Z,23.09
2018-05-13T06:18:40.097Z,23.10
2018-05-13T06:19:42.682Z,23.09
2018-05-13T06:20:45.150Z,23.08
2018-05-13T06:21:47.636Z,23.08
2018-05-13T06:22:50.137Z,23.08
2018-05-13T06:23:52.632Z,23.08
2018-05-13T06:24:55.147Z,23.09
2018-05-13T06:25:57.641Z,23.10
2018-05-13T06:27:00.134Z,23.11
2018-05-13T06:28:02.726Z,23.11
2018-05-13T06:29:05.285Z,23.12
2018-05-13T06:30:07.781Z,23.13
2018-05-13T06:31:10.297Z,23.12
2018-05-13T06:32:12.784Z,23.13
2018-05-13T06:33:15.383Z,23.13
2018-05-13T06:34:18.292Z,23.12
2018-05-13T06:35:20.831Z,23.13
2018-05-13T06:36:23.325Z,23.14
2018-05-13T06:37:25.922Z,23.16
2018-05-13T06:38:28.505Z,23.19
2018-05-13T06:39:31.165Z,23.21
2018-05-13T06:40:33.660Z,23.24
2018-05-13T06:41:36.144Z,23.28
2018-05-13T06:42:38.646Z,23.32
2018-05-13T06:43:41.149Z,23.34
2018-05-13T06:44:43.724Z,23.38
2018-05-13T06:45:46.207Z,23.39
2018-05-13T06:46:48.709Z,23.42
2018-05-13T06:47:51.263Z,23.44
2018-05-13T06:48:53.824Z,23.45
2018-05-13T06:49:56.384Z,23.45
2018-05-13T06:50:59.046Z,23.45
2018-05-13T06:52:01.609Z,23.43
2018-05-13T06:53:04.097Z,23.42
2018-05-13T06:54:06.626Z,23.40
2018-05-13T06:55:09.188Z,23.38
2018-05-13T06:56:11.749Z,23.37
2018-05-13T06:57:14.385Z,23.35
2018-05-13T06:58:16.868Z,23.33
2018-05-13T06:59:19.426Z,23.32
2018-05-13T07:00:21.990Z,23.32
2018-05-13T07:01:24.485Z,23.30
2018-05-13T07:02:26.956Z,23.30
2018-05-13T07:03:29.464Z,23.29
2018-05-13T07:04:31.958Z,23.29
2018-05-13T07:05:34.493Z,23.29
2018-05-13T07:06:36.999Z,23.28
2018-05-13T07:07:39.490Z,23.28
2018-05-13T07:08:41.963Z,23.27
2018-05-13T07:09:44.472Z,23.26
2018-05-13T07:10:47.002Z,23.27
2018-05-13T07:11:49.476Z,23.27
2018-05-13T07:12:51.974Z,23.28
2018-05-13T07:13:54.467Z,23.29
2018-05-13T07:14:56.970Z,23.29
2018-05-13T07:15:59.537Z,23.29
2018-05-13T07:17:02.033Z,23.30
2018-05-13T07:18:04.529Z,23.30
2018-05-13T07:19:07.034Z,23.30
2018-05-13T07:20:09.533Z,23.30
2018-05-13T07:21:12.032Z,23.30
2018-05-13T07:22:14.529Z,23.30
2018-05-13T07:23:17.027Z,23.30
2018-05-13T07:24:19.543Z,23.30
2018-05-13T07:25:22.029Z,23.30
2018-05-13T07:26:24.560Z,23.31
2018-05-13T07:27:27.051Z,23.31
2018-05-13T07:28:29.546Z,23.30
2018-05-13T07:29:32.028Z,23.28
2018-05-13T07:30:34.510Z,23.28
2018-05-13T07:31:37.018Z,23.27
2018-05-13T07:32:39.612Z,23.26
2018-05-13T07:33:42.101Z,23.27
2018-05-13T07:34:44.626Z,23.27
2018-05-13T07:35:47.160Z,23.28
2018-05-13T07:36:49.688Z,23.28
2018-05-13T07:37:52.181Z,23.28
2018-05-13T07:38:54.752Z,23.29
2018-05-13T07:39:57.245Z,23.30
2018-05-13T07:40:59.753Z,23.29
2018-05-13T07:42:02.259Z,23.30
2018-05-13T07:43:04.750Z,23.29
2018-05-13T07:44:07.260Z,23.30
2018-05-13T07:45:09.765Z,23.30
2018-05-13T07:46:12.281Z,23.30
2018-05-13T07:47:14.809Z,23.31
2018-05-13T07:48:17.320Z,23.31
2018-05-13T07:49:19.790Z,23.32
2018-05-13T07:50:22.264Z,23.31
2018-05-13T07:51:24.734Z,23.31
2018-05-13T07:52:27.265Z,23.32
2018-05-13T07:53:29.775Z,23.32
2018-05-13T07:54:32.265Z,23.32
2018-05-13T07:55:34.756Z,23.32
2018-05-13T07:56:37.296Z,23.32
2018-05-13T07:57:39.809Z,23.32
2018-05-13T07:58:42.315Z,23.31
2018-05-13T07:59:44.815Z,23.32
2018-05-13T08:00:47.308Z,23.32
2018-05-13T08:01:49.815Z,23.31
2018-05-13T08:02:52.306Z,23.32
2018-05-13T08:03:54.792Z,23.32
2018-05-13T08:04:57.284Z,23.31
2018-05-13T08:05:59.763Z,23.31
2018-05-13T08:07:02.265Z,23.31
2018-05-13T08:08:04.778Z,23.31
2018-05-13T08:09:07.294Z,23.31
2018-05-13T08:10:09.830Z,23.31
2018-05-13T08:11:12.335Z,23.31
2018-05-13T08:12:14.818Z,23.31
2018-05-13T08:13:17.353Z,23.31
2018-05-13T08:14:19.849Z,23.31
2018-05-13T08:15:22.346Z,23.31
2018-05-13T08:16:24.828Z,23.31
2018-05-13T08:17:27.298Z,23.30
2018-05-13T08:18:29.819Z,23.30
2018-05-13T08:19:32.309Z,23.30
2018-05-13T08:20:34.851Z,23.30
2018-05-13T08:21:37.323Z,23.31
2018-05-13T08:22:39.831Z,23.31
2018-05-13T08:23:42.393Z,23.30
2018-05-13T08:24:44.877Z,23.30
2018-05-13T08:25:47.350Z,23.31
2018-05-13T08:26:49.859Z,23.30
2018-05-13T08:27:52.339Z,23.31
2018-05-13T08:28:54.883Z,23.30
2018-05-13T08:29:57.377Z,23.30
2018-05-13T08:30:59.903Z,23.30
2018-05-13T08:32:02.412Z,23.30
2018-05-13T08:33:04.920Z,23.30
2018-05-13T08:34:07.450Z,23.30
2018-05-13T08:35:09.953Z,23.30
2018-05-13T08:36:12.443Z,23.30
2018-05-13T08:37:14.944Z,23.30
2018-05-13T08:38:17.437Z,23.30
2018-05-13T08:39:19.957Z,23.30
2018-05-13T08:40:22.431Z,23.30
2018-05-13T08:41:24.922Z,23.30
2018-05-13T08:42:27.427Z,23.30
2018-05-13T08:43:29.944Z,23.31
2018-05-13T08:44:32.447Z,23.31
2018-05-13T08:45:34.939Z,23.30
2018-05-13T08:46:37.426Z,23.31
2018-05-13T08:47:39.927Z,23.31
2018-05-13T08:48:42.418Z,23.31
2018-05-13T08:49:44.991Z,23.31
2018-05-13T08:50:47.477Z,23.31
2018-05-13T08:51:49.969Z,23.31
2018-05-13T08:52:52.536Z,23.31
2018-05-13T08:53:55.111Z,23.31
2018-05-13T08:54:57.541Z,23.31
2018-05-13T08:56:00.049Z,23.31
2018-05-13T08:57:02.567Z,23.32
2018-05-13T08:58:05.437Z,23.32
2018-05-13T08:59:08.106Z,23.31
2018-05-13T09:00:10.597Z,23.31
2018-05-13T09:01:13.123Z,23.32
2018-05-13T09:02:15.613Z,23.32
2018-05-13T09:03:18.114Z,23.31
2018-05-13T09:04:20.604Z,23.32
2018-05-13T09:05:23.863Z,23.32
2018-05-13T09:06:26.417Z,23.32
2018-05-13T09:07:28.925Z,23.31
2018-05-13T09:08:31.551Z,23.31
2018-05-13T09:09:34.118Z,23.32
2018-05-13T09:10:36.639Z,23.31
2018-05-13T09:11:39.159Z,23.30
2018-05-13T09:12:41.665Z,23.31
2018-05-13T09:13:44.158Z,23.31
2018-05-13T09:14:46.648Z,23.31
2018-05-13T09:15:49.150Z,23.32
2018-05-13T09:16:51.709Z,23.32
2018-05-13T09:17:54.205Z,23.32
2018-05-13T09:18:56.712Z,23.32
2018-05-13T09:19:59.202Z,23.30
2018-05-13T09:21:01.709Z,23.32
2018-05-13T09:22:04.182Z,23.33
2018-05-13T09:23:06.661Z,23.33
2018-05-13T09:24:09.183Z,23.34
2018-05-13T09:25:11.704Z,23.34
2018-05-13T09:26:14.203Z,23.35
2018-05-13T09:27:16.670Z,23.35
2018-05-13T09:28:19.172Z,23.35
2018-05-13T09:29:21.680Z,23.35
2018-05-13T09:30:24.183Z,23.36
2018-05-13T09:31:26.726Z,23.37
2018-05-13T09:32:29.250Z,23.37
2018-05-13T09:33:31.737Z,23.38
2018-05-13T09:34:34.245Z,23.38
2018-05-13T09:35:36.756Z,23.39
2018-05-13T09:36:39.268Z,23.41
2018-05-13T09:37:41.758Z,23.42
2018-05-13T09:38:44.249Z,23.42
2018-05-13T09:39:46.736Z,23.43
2018-05-13T09:40:49.244Z,23.43
2018-05-13T09:41:51.771Z,23.44
2018-05-13T09:42:54.284Z,23.45
2018-05-13T09:43:56.776Z,23.48
2018-05-13T09:44:59.303Z,23.47
2018-05-13T09:46:01.802Z,23.50
2018-05-13T09:47:04.331Z,23.50
2018-05-13T09:48:06.892Z,23.50
2018-05-13T09:49:09.389Z,23.50
2018-05-13T09:50:11.896Z,23.49
2018-05-13T09:51:14.438Z,23.48
2018-05-13T09:52:16.914Z,23.46
2018-05-13T09:53:19.899Z,23.45
2018-05-13T09:54:22.391Z,23.45
2018-05-13T09:55:24.889Z,23.43
2018-05-13T09:56:27.380Z,23.43
2018-05-13T09:57:29.932Z,23.43
2018-05-13T09:58:32.406Z,23.42
2018-05-13T09:59:34.886Z,23.41
2018-05-13T10:00:38.170Z,23.41
2018-05-13T10:01:40.692Z,23.43
2018-05-13T10:02:43.219Z,23.44
2018-05-13T10:03:45.748Z,23.42
2018-05-13T10:04:48.250Z,23.42
2018-05-13T10:05:50.757Z,23.40
2018-05-13T10:06:53.279Z,23.40
2018-05-13T10:07:55.787Z,23.39
2018-05-13T10:08:58.285Z,23.37
2018-05-13T10:10:00.793Z,23.35
2018-05-13T10:11:03.302Z,23.34
2018-05-13T10:12:05.809Z,23.31
2018-05-13T10:13:08.354Z,23.29
2018-05-13T10:14:10.857Z,23.26
2018-05-13T10:15:13.358Z,23.25
2018-05-13T10:16:15.872Z,23.24
2018-05-13T10:17:18.381Z,23.25
2018-05-13T10:18:20.926Z,23.29
2018-05-13T10:19:23.509Z,23.30
2018-05-13T10:20:25.931Z,23.31
2018-05-13T10:21:28.508Z,23.32
2018-05-13T10:22:31.067Z,23.33
2018-05-13T10:23:33.627Z,23.34
2018-05-13T10:24:36.124Z,23.35
2018-05-13T10:25:38.625Z,23.37
2018-05-13T10:26:41.126Z,23.37
2018-05-13T10:27:43.602Z,23.38
2018-05-13T10:28:46.139Z,23.39
2018-05-13T10:29:48.676Z,23.39
2018-05-13T10:30:51.200Z,23.39
2018-05-13T10:31:53.769Z,23.40
2018-05-13T10:32:56.289Z,23.40
2018-05-13T10:33:58.790Z,23.41
2018-05-13T10:35:01.372Z,23.41
2018-05-13T10:36:03.873Z,23.41
2018-05-13T10:37:06.398Z,23.41
2018-05-13T10:38:08.904Z,23.42
2018-05-13T10:39:11.530Z,23.44
2018-05-13T10:40:14.081Z,23.44
2018-05-13T10:41:17.772Z,23.44
2018-05-13T10:42:22.337Z,23.44
2018-05-13T10:43:27.404Z,23.45
2018-05-13T10:44:31.672Z,23.45
2018-05-13T10:45:34.179Z,23.46
2018-05-13T10:46:36.662Z,23.47
2018-05-13T10:47:39.190Z,23.47
2018-05-13T10:48:41.693Z,23.46
2018-05-13T10:49:44.286Z,23.47
2018-05-13T10:50:46.998Z,23.47
2018-05-13T10:51:49.584Z,23.47
2018-05-13T10:52:52.291Z,23.46
2018-05-13T10:53:54.977Z,23.46
2018-05-13T10:54:57.745Z,23.46
2018-05-13T10:56:00.362Z,23.45
2018-05-13T10:57:02.877Z,23.45
2018-05-13T10:58:05.362Z,23.45
2018-05-13T10:59:07.877Z,23.44
2018-05-13T11:00:10.412Z,23.44
2018-05-13T11:01:12.962Z,23.45
2018-05-13T11:02:15.488Z,23.45
2018-05-13T11:03:22.865Z,23.47
2018-05-13T11:04:28.701Z,23.47
2018-05-13T11:05:35.277Z,23.46
2018-05-13T11:06:37.844Z,23.47
2018-05-13T11:07:40.327Z,23.47
2018-05-13T11:08:42.811Z,23.48
2018-05-13T11:09:45.298Z,23.48
2018-05-13T11:10:47.985Z,23.48
2018-05-13T11:11:53.586Z,23.48
2018-05-13T11:12:56.786Z,23.48
2018-05-13T11:13:59.789Z,23.47
2018-05-13T11:15:02.797Z,23.46
2018-05-13T11:16:05.352Z,23.45
2018-05-13T11:17:07.899Z,23.44
2018-05-13T11:18:10.513Z,23.44
2018-05-13T11:19:13.038Z,23.44
2018-05-13T11:20:15.623Z,23.44
2018-05-13T11:21:18.122Z,23.45
2018-05-13T11:22:20.631Z,23.46
2018-05-13T11:23:23.481Z,23.47
2018-05-13T11:24:26.409Z,23.50
2018-05-13T11:25:29.138Z,23.53
2018-05-13T11:26:31.657Z,23.54
2018-05-13T11:27:34.181Z,23.54
2018-05-13T11:28:36.665Z,23.54
2018-05-13T11:29:39.162Z,23.54
2018-05-13T11:30:41.707Z,23.54
2018-05-13T11:31:44.210Z,23.53
2018-05-13T11:32:46.697Z,23.54
2018-05-13T11:33:49.234Z,23.53
2018-05-13T11:34:51.767Z,23.52
2018-05-13T11:35:54.292Z,23.53
2018-05-13T11:36:56.866Z,23.54
2018-05-13T11:37:59.460Z,23.53
2018-05-13T11:39:02.020Z,23.52
2018-05-13T11:40:04.577Z,23.52
2018-05-13T11:41:07.086Z,23.50
2018-05-13T11:42:09.603Z,23.49
2018-05-13T11:43:12.101Z,23.48
2018-05-13T11:44:14.601Z,23.48
2018-05-13T11:45:17.123Z,23.46
2018-05-13T11:46:19.713Z,23.44
2018-05-13T11:47:22.252Z,23.40
2018-05-13T11:48:24.788Z,23.37
2018-05-13T11:49:27.309Z,23.34
2018-05-13T11:50:29.810Z,23.36
2018-05-13T11:51:32.339Z,23.33
2018-05-13T11:52:34.843Z,23.31
2018-05-13T11:53:37.327Z,23.30
2018-05-13T11:54:39.803Z,23.29
2018-05-13T11:55:42.320Z,23.28
2018-05-13T11:56:44.816Z,23.28
2018-05-13T11:57:47.702Z,23.28
2018-05-13T11:58:50.219Z,23.28
2018-05-13T11:59:52.751Z,23.28
2018-05-13T12:00:57.062Z,23.28
2018-05-13T12:02:03.608Z,23.28
2018-05-13T12:03:06.098Z,23.27
2018-05-13T12:04:08.630Z,23.28
2018-05-13T12:05:11.188Z,23.27
2018-05-13T12:06:13.682Z,23.27
2018-05-13T12:07:16.212Z,23.26
2018-05-13T12:08:21.106Z,23.26
2018-05-13T12:09:24.356Z,23.26
2018-05-13T12:10:27.118Z,23.26
2018-05-13T12:11:29.621Z,23.26
2018-05-13T12:12:32.132Z,23.26
2018-05-13T12:13:34.796Z,23.26
2018-05-13T12:14:37.286Z,23.25
2018-05-13T12:15:39.813Z,23.25
2018-05-13T12:16:42.375Z,23.25
2018-05-13T12:17:44.858Z,23.25
2018-05-13T12:18:47.386Z,23.25
2018-05-13T12:19:49.902Z,23.24
2018-05-13T12:20:52.404Z,23.25
2018-05-13T12:21:54.965Z,23.24
2018-05-13T12:22:57.534Z,23.25
2018-05-13T12:24:00.090Z,23.24
2018-05-13T12:25:02.607Z,23.23
2018-05-13T12:26:05.105Z,23.23
2018-05-13T12:27:07.591Z,23.23
2018-05-13T12:28:10.104Z,23.23
2018-05-13T12:29:12.629Z,23.22
2018-05-13T12:30:15.114Z,23.22
2018-05-13T12:31:17.612Z,23.22
2018-05-13T12:32:20.099Z,23.22
2018-05-13T12:33:22.614Z,23.22
2018-05-13T12:34:25.181Z,23.21
2018-05-13T12:35:27.738Z,23.22
2018-05-13T12:36:30.265Z,23.21
2018-05-13T12:37:32.772Z,23.21
2018-05-13T12:38:35.292Z,23.20
2018-05-13T12:39:37.878Z,23.21
2018-05-13T12:40:40.435Z,23.20
2018-05-13T12:41:42.995Z,23.20
2018-05-13T12:42:45.660Z,23.20
2018-05-13T12:43:48.158Z,23.19
2018-05-13T12:44:50.715Z,23.19
2018-05-13T12:45:53.211Z,23.19
2018-05-13T12:46:55.710Z,23.19
2018-05-13T12:47:58.277Z,23.20
2018-05-13T12:49:00.819Z,23.19
2018-05-13T12:50:03.438Z,23.19
2018-05-13T12:51:05.915Z,23.19
2018-05-13T12:52:08.439Z,23.19
2018-05-13T12:53:10.994Z,23.20
2018-05-13T12:54:13.501Z,23.20
2018-05-13T12:55:16.113Z,23.19
2018-05-13T12:56:18.648Z,23.19
2018-05-13T12:57:21.119Z,23.19
2018-05-13T12:58:23.703Z,23.18
2018-05-13T12:59:26.136Z,23.19
2018-05-13T13:00:28.652Z,23.19
2018-05-13T13:01:31.152Z,23.18
2018-05-13T13:02:33.672Z,23.18
2018-05-13T13:03:36.171Z,23.18
2018-05-13T13:04:38.661Z,23.18
2018-05-13T13:05:41.260Z,23.18
2018-05-13T13:06:43.765Z,23.18
2018-05-13T13:07:46.361Z,23.18
2018-05-13T13:08:48.782Z,23.17
2018-05-13T13:09:51.346Z,23.17
2018-05-13T13:10:53.832Z,23.17
2018-05-13T13:11:56.318Z,23.17
2018-05-13T13:12:58.880Z,23.17
2018-05-13T13:14:01.367Z,23.17
2018-05-13T13:15:03.886Z,23.16
2018-05-13T13:16:06.381Z,23.16
2018-05-13T13:17:08.912Z,23.16
2018-05-13T13:18:11.390Z,23.16
2018-05-13T13:19:13.947Z,23.15
2018-05-13T13:20:16.479Z,23.15
2018-05-13T13:21:19.042Z,23.15
2018-05-13T13:22:21.612Z,23.15
2018-05-13T13:23:24.172Z,23.15
2018-05-13T13:24:26.654Z,23.15
2018-05-13T13:25:29.187Z,23.14
2018-05-13T13:26:31.665Z,23.14
2018-05-13T13:27:34.169Z,23.14
2018-05-13T13:28:36.673Z,23.14